Time;durP1;ratioP1;P1;durP2;ratioP2;P2;SDS_P1;SDS_P2;PMS_P1;PMS_P2;Temp;Humidity;BMP_temperature;BMP_pressure;BME280_temperature;BME280_humidity;BME280_pressure;Samples;Min_cycle;Max_cycle;Signal;HPM_P1;HPM_P2
2022/01/20 00:01:19;;;;;;;13.00;1.98;;;4.40;99.90;;;;;;5070634;28;20049;-77
2022/01/20 00:03:45;;;;;;;21.08;2.25;;;4.40;99.90;;;;;;5069635;28;20107;-77
2022/01/20 00:28:02;;;;;;;13.02;1.45;;;4.30;99.90;;;;;;5080495;28;20081;-77
2022/01/20 00:30:38;;;;;;;20.13;1.48;;;4.40;99.90;;;;;;5082088;28;20055;-73
2022/01/20 00:38:23;;;;;;;9.15;1.35;;;4.40;99.90;;;;;;5083273;28;20066;-76
2022/01/20 00:40:49;;;;;;;19.70;1.52;;;4.40;99.90;;;;;;5072838;28;20036;-74
2022/01/20 00:43:15;;;;;;;21.70;1.42;;;4.30;99.90;;;;;;5094437;28;20047;-74
2022/01/20 00:45:40;;;;;;;12.43;1.40;;;4.40;99.90;;;;;;5088464;28;20039;-75
2022/01/20 00:48:06;;;;;;;13.25;1.83;;;4.40;99.90;;;;;;5083857;28;20399;-72
2022/01/20 00:50:34;;;;;;;16.45;2.47;;;4.40;99.90;;;;;;5084644;28;20068;-73
2022/01/20 00:53:00;;;;;;;16.85;1.77;;;4.40;99.90;;;;;;5081002;28;20044;-76
2022/01/20 00:55:25;;;;;;;19.67;1.85;;;4.40;99.90;;;;;;5084230;28;20398;-72
2022/01/20 00:57:51;;;;;;;11.20;1.42;;;4.30;99.90;;;;;;5072005;28;20043;-71
2022/01/20 01:00:17;;;;;;;15.85;2.17;;;4.40;99.90;;;;;;5073866;28;20041;-78
2022/01/20 01:02:42;;;;;;;20.60;1.88;;;4.50;99.90;;;;;;5080578;28;20043;-75
2022/01/20 01:05:10;;;;;;;30.33;2.50;;;4.60;99.90;;;;;;5089609;28;20406;-74
2022/01/20 01:07:47;;;;;;;17.30;1.77;;;4.60;99.90;;;;;;5088598;28;20315;-77
2022/01/20 01:10:28;;;;;;;13.48;1.67;;;4.70;99.90;;;;;;5106018;28;20036;-72
2022/01/20 01:15:29;;;;;;;8.23;1.33;;;4.80;99.90;;;;;;5090174;28;20043;-76
2022/01/20 01:21:10;;;;;;;10.40;1.92;;;4.90;99.90;;;;;;5090829;28;20062;-73
2022/01/20 01:23:37;;;;;;;17.17;1.92;;;5.00;99.90;;;;;;5108457;28;20040;-70
2022/01/20 01:26:05;;;;;;;9.55;1.20;;;4.80;99.90;;;;;;5075000;28;20174;-73
2022/01/20 01:28:31;;;;;;;12.02;1.77;;;4.70;99.90;;;;;;5085636;28;20036;-71
2022/01/20 01:33:25;;;;;;;5.90;0.70;;;4.40;99.90;;;;;;5085744;28;20044;-70
2022/01/20 01:35:56;;;;;;;6.28;0.80;;;4.30;99.90;;;;;;5088029;28;20086;-70
2022/01/20 01:38:25;;;;;;;3.25;0.80;;;4.30;99.90;;;;;;5090020;28;20052;-73
2022/01/20 01:40:51;;;;;;;8.27;1.02;;;4.20;99.90;;;;;;5084326;28;20093;-70
2022/01/20 01:43:25;;;;;;;6.97;0.88;;;4.30;99.90;;;;;;5081541;28;20418;-71
2022/01/20 01:45:51;;;;;;;8.65;0.52;;;4.30;99.90;;;;;;5088978;28;20483;-71
2022/01/20 01:48:16;;;;;;;8.10;0.65;;;4.20;99.90;;;;;;5090940;28;20065;-73
2022/01/20 01:50:42;;;;;;;6.95;0.77;;;4.30;99.90;;;;;;5085305;28;20085;-69
2022/01/20 01:53:07;;;;;;;7.10;1.10;;;4.30;99.90;;;;;;5089210;28;20410;-74
2022/01/20 01:55:35;;;;;;;7.63;0.65;;;4.30;99.90;;;;;;5086562;28;20482;-76
2022/01/20 01:58:00;;;;;;;4.05;0.60;;;4.30;99.90;;;;;;5082110;28;20075;-70
2022/01/20 02:00:27;;;;;;;5.90;0.47;;;4.30;99.90;;;;;;5088037;28;20083;-72
2022/01/20 02:02:52;;;;;;;5.28;0.95;;;4.30;99.90;;;;;;5084234;28;20490;-72
2022/01/20 02:05:19;;;;;;;13.00;0.68;;;4.30;99.90;;;;;;5090535;28;20078;-73
2022/01/20 02:18:49;;;;;;;19.65;1.77;;;4.40;99.90;;;;;;5083892;28;20506;-70
2022/01/20 02:21:15;;;;;;;11.13;1.08;;;4.50;99.90;;;;;;5082631;28;20102;-68
2022/01/20 02:23:42;;;;;;;6.93;1.02;;;4.60;99.90;;;;;;5085679;28;20043;-70
2022/01/20 02:26:08;;;;;;;5.18;0.80;;;4.50;99.90;;;;;;5082565;28;20076;-72
2022/01/20 02:28:34;;;;;;;11.32;1.23;;;4.40;99.90;;;;;;5084208;28;20113;-70
2022/01/20 02:30:59;;;;;;;6.85;0.98;;;4.30;99.90;;;;;;5074483;28;20131;-71
2022/01/20 02:33:27;;;;;;;5.57;1.27;;;4.30;99.90;;;;;;5087197;28;20039;-71
2022/01/20 02:35:57;;;;;;;8.82;1.20;;;4.20;99.90;;;;;;5083424;28;20048;-71
2022/01/20 02:38:34;;;;;;;12.85;0.80;;;4.20;99.90;;;;;;5068426;28;20036;-72
2022/01/20 02:46:35;;;;;;;12.55;1.00;;;4.30;99.90;;;;;;5089834;28;20127;-68
2022/01/20 02:49:00;;;;;;;9.93;1.52;;;4.30;99.90;;;;;;5080550;28;20044;-68
2022/01/20 02:51:26;;;;;;;14.43;1.60;;;4.40;99.90;;;;;;5077429;28;20051;-71
2022/01/20 02:53:52;;;;;;;7.60;1.08;;;4.50;99.90;;;;;;5075749;28;20131;-71
2022/01/20 02:56:18;;;;;;;8.43;0.90;;;4.50;99.90;;;;;;5084701;28;20040;-70
2022/01/20 02:58:43;;;;;;;7.20;0.90;;;4.60;99.90;;;;;;5082704;28;20083;-69
2022/01/20 03:01:09;;;;;;;11.15;1.40;;;4.60;99.90;;;;;;5085003;28;20080;-70
2022/01/20 03:03:35;;;;;;;23.20;2.10;;;4.70;99.90;;;;;;5083863;28;20046;-70
2022/01/20 03:06:02;;;;;;;23.80;2.63;;;4.70;99.90;;;;;;5091604;28;20395;-69
2022/01/20 03:08:28;;;;;;;16.55;2.35;;;4.60;99.90;;;;;;5085885;28;20032;-69
2022/01/20 03:10:53;;;;;;;22.42;2.88;;;4.50;99.90;;;;;;5088506;28;20047;-72
2022/01/20 03:13:19;;;;;;;25.25;3.30;;;4.40;99.90;;;;;;5085383;28;20059;-69
2022/01/20 03:15:45;;;;;;;19.95;3.15;;;4.30;99.90;;;;;;5086918;28;20040;-69
2022/01/20 03:18:10;;;;;;;17.35;2.42;;;4.20;99.90;;;;;;5080597;28;20433;-70
2022/01/20 03:20:36;;;;;;;18.75;2.65;;;4.10;99.90;;;;;;5078635;28;20047;-68
2022/01/20 03:23:03;;;;;;;19.23;2.78;;;4.10;99.90;;;;;;5083821;28;20055;-70
2022/01/20 03:25:29;;;;;;;20.55;2.65;;;4.10;99.90;;;;;;5078693;28;20032;-70
2022/01/20 03:27:56;;;;;;;34.30;3.03;;;4.10;99.90;;;;;;5087903;28;20036;-71
2022/01/20 03:30:23;;;;;;;22.67;2.88;;;4.00;99.90;;;;;;5088865;28;20035;-69
2022/01/20 03:32:48;;;;;;;15.25;1.98;;;4.00;99.90;;;;;;5088654;28;20039;-70
2022/01/20 03:35:16;;;;;;;17.10;2.42;;;4.00;99.90;;;;;;5089918;28;20044;-71
2022/01/20 03:37:41;;;;;;;14.80;1.75;;;4.00;99.90;;;;;;5082918;28;20433;-67
2022/01/20 03:40:08;;;;;;;20.48;1.85;;;4.00;99.90;;;;;;5088507;28;20040;-69
2022/01/20 03:42:34;;;;;;;24.40;1.92;;;4.00;99.90;;;;;;5083328;28;20044;-70
2022/01/20 03:45:00;;;;;;;20.13;1.83;;;4.00;99.90;;;;;;5081390;28;20046;-69
2022/01/20 03:47:26;;;;;;;20.40;2.42;;;4.00;99.90;;;;;;5087440;28;20517;-69
2022/01/20 03:52:18;;;;;;;16.02;1.85;;;4.00;99.90;;;;;;5085908;28;20047;-68
2022/01/20 03:54:44;;;;;;;24.98;3.70;;;4.00;99.90;;;;;;5087166;28;20139;-70
2022/01/20 03:57:10;;;;;;;36.10;3.90;;;3.90;99.90;;;;;;5087143;28;20040;-70
2022/01/20 03:59:35;;;;;;;26.63;3.55;;;4.00;99.90;;;;;;5079323;28;20416;-68
2022/01/20 04:02:01;;;;;;;32.60;4.07;;;4.00;99.90;;;;;;5088082;28;20411;-68
2022/01/20 04:04:27;;;;;;;42.42;4.28;;;4.00;99.90;;;;;;5081312;28;20032;-68
2022/01/20 04:06:52;;;;;;;37.63;5.22;;;4.00;99.90;;;;;;5085228;28;20044;-69
2022/01/20 04:09:18;;;;;;;38.15;4.80;;;4.20;99.90;;;;;;5077167;28;20044;-69
2022/01/20 04:11:44;;;;;;;48.28;5.55;;;4.20;99.90;;;;;;5077454;28;20483;-69
2022/01/20 04:14:12;;;;;;;38.42;5.57;;;4.20;99.90;;;;;;5081660;28;20047;-69
2022/01/20 04:17:01;;;;;;;37.25;5.53;;;4.20;99.90;;;;;;5076751;28;20541;-69
2022/01/20 04:19:28;;;;;;;33.45;3.90;;;4.20;99.90;;;;;;5074328;28;20097;-69
2022/01/20 04:21:54;;;;;;;29.20;3.92;;;4.20;99.90;;;;;;5088991;28;20127;-67
2022/01/20 04:24:20;;;;;;;30.83;3.92;;;4.20;99.90;;;;;;5055632;28;20123;-68
2022/01/20 04:26:47;;;;;;;37.38;4.22;;;4.20;99.90;;;;;;5081654;28;20418;-71
2022/01/20 04:29:15;;;;;;;37.83;4.22;;;4.10;99.90;;;;;;5085074;28;20047;-68
2022/01/20 04:31:41;;;;;;;31.60;4.30;;;4.10;99.90;;;;;;5076159;28;20036;-68
2022/01/20 04:34:08;;;;;;;25.67;3.80;;;4.10;99.90;;;;;;5088164;28;20079;-69
2022/01/20 04:36:39;;;;;;;27.70;3.15;;;4.10;99.90;;;;;;5088754;28;20111;-69
2022/01/20 04:39:09;;;;;;;31.15;3.70;;;4.10;99.90;;;;;;5090098;28;20028;-67
2022/01/20 04:41:35;;;;;;;40.80;4.25;;;4.10;99.90;;;;;;5092955;28;20040;-67
2022/01/20 04:44:04;;;;;;;40.00;5.03;;;4.10;99.90;;;;;;5104071;28;20037;-68
2022/01/20 04:59:28;;;;;;;25.33;4.03;;;4.00;99.90;;;;;;5090156;28;20040;-70
2022/01/20 05:01:54;;;;;;;23.45;2.40;;;4.00;99.90;;;;;;5089223;28;20049;-69
2022/01/20 05:04:21;;;;;;;30.77;3.60;;;3.90;99.90;;;;;;5086410;28;20406;-69
2022/01/20 05:06:48;;;;;;;25.00;3.03;;;3.80;99.90;;;;;;5088185;28;20468;-68
2022/01/20 05:09:19;;;;;;;26.83;2.75;;;3.80;99.90;;;;;;5082853;28;20032;-67
2022/01/20 05:11:52;;;;;;;27.98;3.75;;;3.80;99.90;;;;;;5090962;28;20048;-68
2022/01/20 05:14:18;;;;;;;11.15;2.00;;;3.80;99.90;;;;;;5092931;28;20039;-69
2022/01/20 05:16:44;;;;;;;25.80;3.75;;;3.80;99.90;;;;;;5090836;28;20044;-71
2022/01/20 05:19:09;;;;;;;29.05;3.53;;;3.90;99.90;;;;;;5074840;28;20036;-70
2022/01/20 05:21:35;;;;;;;22.98;3.28;;;3.80;99.90;;;;;;5088912;28;20043;-67
2022/01/20 05:24:01;;;;;;;20.58;3.13;;;3.60;99.90;;;;;;5085702;28;20032;-68
2022/01/20 05:26:27;;;;;;;14.63;2.95;;;3.60;99.90;;;;;;5086689;28;20032;-69
2022/01/20 05:28:52;;;;;;;15.80;2.80;;;3.50;99.90;;;;;;5097503;28;20036;-70
2022/01/20 05:31:18;;;;;;;17.95;2.53;;;3.50;99.90;;;;;;5080655;28;20036;-70
2022/01/20 05:33:43;;;;;;;13.70;2.28;;;3.40;99.90;;;;;;5062434;28;20036;-68
2022/01/20 05:36:09;;;;;;;25.30;2.83;;;3.40;99.90;;;;;;5079816;28;20044;-69
2022/01/20 05:38:34;;;;;;;11.77;1.67;;;3.30;99.90;;;;;;5078310;28;20507;-72
2022/01/20 05:41:00;;;;;;;23.15;2.47;;;3.20;99.90;;;;;;5083496;28;20032;-69
2022/01/20 05:43:26;;;;;;;10.07;1.98;;;3.20;99.90;;;;;;5086295;28;20036;-69
2022/01/20 05:45:51;;;;;;;12.57;1.55;;;3.10;99.90;;;;;;5079747;28;20045;-70
2022/01/20 05:48:21;;;;;;;17.65;2.70;;;3.00;99.90;;;;;;5080427;28;20054;-69
2022/01/20 05:50:47;;;;;;;18.52;2.60;;;3.00;99.90;;;;;;5083108;28;20036;-69
2022/01/20 05:53:12;;;;;;;24.35;3.10;;;2.90;99.90;;;;;;5079352;28;20047;-70
2022/01/20 05:55:38;;;;;;;19.13;2.65;;;2.90;99.90;;;;;;5081178;28;20046;-70
2022/01/20 05:58:06;;;;;;;22.52;2.20;;;2.80;99.90;;;;;;5088855;28;20040;-71
2022/01/20 06:00:33;;;;;;;21.25;2.20;;;2.90;99.90;;;;;;5087881;28;20173;-70
2022/01/20 06:05:44;;;;;;;20.98;2.35;;;2.90;99.90;;;;;;5090134;28;20131;-69
2022/01/20 06:08:10;;;;;;;21.88;4.07;;;2.90;99.90;;;;;;5088911;28;20126;-68
2022/01/20 06:10:36;;;;;;;22.17;2.53;;;2.90;99.90;;;;;;5089065;28;20036;-71
2022/01/20 06:13:02;;;;;;;27.10;2.67;;;2.90;99.90;;;;;;5089876;28;20055;-68
2022/01/20 06:15:28;;;;;;;19.13;3.33;;;2.90;99.90;;;;;;5084016;28;20041;-68
2022/01/20 06:17:54;;;;;;;23.13;2.45;;;3.00;99.90;;;;;;5083853;28;20081;-70
2022/01/20 06:20:19;;;;;;;19.83;2.30;;;3.00;99.90;;;;;;5095214;28;20067;-70
2022/01/20 06:22:45;;;;;;;28.50;3.55;;;3.10;99.90;;;;;;5089225;28;20123;-71
2022/01/20 06:25:11;;;;;;;24.77;2.28;;;3.10;99.90;;;;;;5076253;28;20043;-68
2022/01/20 06:27:37;;;;;;;18.92;2.75;;;3.00;99.90;;;;;;5072730;28;20032;-70
2022/01/20 06:30:04;;;;;;;21.48;2.65;;;2.90;99.90;;;;;;5079707;28;20115;-71
2022/01/20 06:32:31;;;;;;;10.38;2.45;;;2.90;99.90;;;;;;5086772;28;20040;-71
2022/01/20 06:34:57;;;;;;;37.67;3.00;;;2.90;99.90;;;;;;5076485;28;20040;-69
2022/01/20 06:37:23;;;;;;;19.60;2.78;;;2.80;99.90;;;;;;5090805;28;20525;-69
2022/01/20 06:39:48;;;;;;;32.03;3.65;;;2.80;99.90;;;;;;5088402;28;20115;-71
2022/01/20 06:42:14;;;;;;;30.25;3.05;;;2.90;99.90;;;;;;5089213;28;20067;-66
2022/01/20 06:44:40;;;;;;;38.28;4.72;;;3.00;99.90;;;;;;5089975;28;20111;-68
2022/01/20 06:47:06;;;;;;;18.40;1.95;;;2.90;99.90;;;;;;5080604;28;20385;-69
2022/01/20 06:49:32;;;;;;;23.23;2.55;;;2.70;99.90;;;;;;5083707;28;20036;-69
2022/01/20 06:51:58;;;;;;;12.98;1.65;;;2.60;99.90;;;;;;5079034;28;20522;-68
2022/01/20 06:54:24;;;;;;;9.63;1.88;;;2.50;99.90;;;;;;5080647;28;20044;-68
2022/01/20 06:56:50;;;;;;;27.48;3.50;;;2.40;99.90;;;;;;5076885;28;20039;-71
2022/01/20 06:59:17;;;;;;;18.85;3.17;;;2.30;99.90;;;;;;5077494;28;20123;-70
2022/01/20 07:01:44;;;;;;;27.38;2.83;;;2.30;99.90;;;;;;5085784;28;20044;-71
2022/01/20 07:04:13;;;;;;;30.52;3.15;;;2.30;99.90;;;;;;5069746;28;20044;-71
2022/01/20 07:06:39;;;;;;;11.82;2.72;;;2.30;99.90;;;;;;5081132;28;20114;-71
2022/01/20 07:09:07;;;;;;;8.57;1.52;;;2.20;99.90;;;;;;5065392;28;20411;-72
2022/01/20 07:11:33;;;;;;;19.67;2.13;;;2.10;99.90;;;;;;5086975;28;20036;-70
2022/01/20 07:13:59;;;;;;;17.42;1.35;;;2.10;99.90;;;;;;5083099;28;20036;-69
2022/01/20 07:16:25;;;;;;;20.88;2.80;;;2.00;99.90;;;;;;5084395;28;20094;-70
2022/01/20 07:18:51;;;;;;;17.52;3.88;;;2.00;99.90;;;;;;5083109;28;20071;-69
2022/01/20 07:21:18;;;;;;;12.38;2.13;;;2.00;99.90;;;;;;5085624;28;20068;-71
2022/01/20 07:23:43;;;;;;;16.65;1.67;;;2.00;99.90;;;;;;5089976;28;20109;-70
2022/01/20 07:26:09;;;;;;;16.83;2.60;;;2.00;99.90;;;;;;5072996;28;20036;-70
2022/01/20 07:28:35;;;;;;;15.48;1.98;;;2.00;99.90;;;;;;5081749;28;20119;-69
2022/01/20 07:31:01;;;;;;;21.42;2.90;;;2.00;99.90;;;;;;5072838;28;20048;-68
2022/01/20 07:33:27;;;;;;;16.25;2.33;;;2.00;99.90;;;;;;5087026;28;20187;-68
2022/01/20 07:35:53;;;;;;;26.02;2.33;;;2.20;99.90;;;;;;5078016;28;20448;-69
2022/01/20 07:38:18;;;;;;;18.27;1.77;;;2.30;99.90;;;;;;5078571;28;20151;-71
2022/01/20 07:40:44;;;;;;;18.40;2.70;;;2.40;99.90;;;;;;5079872;28;20466;-72
2022/01/20 07:43:09;;;;;;;23.88;2.40;;;2.50;99.90;;;;;;5085357;28;20114;-73
2022/01/20 07:45:35;;;;;;;17.27;3.33;;;2.50;99.90;;;;;;5077207;28;20098;-70
2022/01/20 07:48:00;;;;;;;14.10;2.25;;;2.50;99.90;;;;;;5076699;28;20032;-71
2022/01/20 07:50:26;;;;;;;13.35;2.05;;;2.50;99.90;;;;;;5099785;28;20066;-69
2022/01/20 07:52:52;;;;;;;9.02;1.45;;;2.50;99.90;;;;;;5090171;28;20546;-68
2022/01/20 07:55:17;;;;;;;39.03;3.42;;;2.50;99.90;;;;;;5089350;28;20032;-71
2022/01/20 07:57:43;;;;;;;15.88;2.60;;;2.60;99.90;;;;;;5067996;28;20040;-72
2022/01/20 08:00:10;;;;;;;19.17;3.45;;;2.60;99.90;;;;;;5078052;28;20040;-71
2022/01/20 08:02:36;;;;;;;18.27;2.15;;;2.60;99.90;;;;;;5087256;28;20044;-71
2022/01/20 08:05:02;;;;;;;29.02;2.72;;;2.60;99.90;;;;;;5082141;28;20055;-71
2022/01/20 08:07:27;;;;;;;23.17;3.67;;;2.60;99.90;;;;;;5074308;28;20537;-72
2022/01/20 08:09:59;;;;;;;21.38;2.75;;;2.50;99.90;;;;;;5074928;28;20032;-73
2022/01/20 08:12:29;;;;;;;31.02;4.35;;;2.40;99.90;;;;;;5090100;28;20054;-72
2022/01/20 08:14:56;;;;;;;16.38;2.00;;;2.40;99.90;;;;;;5088631;28;20063;-73
2022/01/20 08:17:22;;;;;;;34.13;2.75;;;2.30;99.90;;;;;;5072743;28;20044;-70
2022/01/20 08:19:48;;;;;;;15.10;2.50;;;2.40;99.90;;;;;;5068869;28;20403;-70
2022/01/20 08:22:14;;;;;;;15.30;2.20;;;2.50;99.90;;;;;;5088096;28;20059;-67
2022/01/20 08:24:41;;;;;;;25.50;3.30;;;2.60;99.90;;;;;;5087770;28;20383;-70
2022/01/20 08:27:08;;;;;;;21.63;2.08;;;2.60;99.90;;;;;;5075545;28;20046;-70
2022/01/20 08:29:33;;;;;;;21.52;2.15;;;2.60;99.90;;;;;;5087656;28;20040;-69
2022/01/20 08:31:59;;;;;;;17.75;2.22;;;2.60;99.90;;;;;;5089067;28;20047;-68
2022/01/20 08:34:24;;;;;;;16.33;2.58;;;2.60;99.90;;;;;;5088505;28;20398;-71
2022/01/20 08:36:52;;;;;;;18.08;2.05;;;2.60;99.90;;;;;;5075885;28;20040;-69
2022/01/20 08:39:39;;;;;;;20.40;2.72;;;2.60;99.90;;;;;;5072842;28;20522;-70
2022/01/20 08:42:05;;;;;;;22.10;2.90;;;2.60;99.90;;;;;;5080726;28;20086;-69
2022/01/20 08:44:31;;;;;;;17.60;2.47;;;2.60;99.90;;;;;;5079786;28;20040;-69
2022/01/20 08:46:58;;;;;;;36.58;4.63;;;2.70;99.90;;;;;;5075597;28;20068;-69
2022/01/20 08:49:24;;;;;;;29.98;3.50;;;2.80;99.90;;;;;;5075079;28;20467;-70
2022/01/20 08:51:51;;;;;;;28.85;3.08;;;2.90;99.90;;;;;;5100466;28;20483;-71
2022/01/20 08:54:17;;;;;;;15.27;2.65;;;2.80;99.90;;;;;;5080224;28;20040;-68
2022/01/20 08:56:42;;;;;;;36.15;4.30;;;2.90;99.90;;;;;;5072661;28;20406;-70
2022/01/20 08:59:10;;;;;;;21.60;2.45;;;2.80;99.90;;;;;;5070698;28;20040;-68
2022/01/20 09:01:39;;;;;;;18.30;2.53;;;2.80;99.90;;;;;;5071381;28;20043;-69
2022/01/20 09:04:05;;;;;;;25.77;2.53;;;2.90;99.90;;;;;;5072923;28;20039;-71
2022/01/20 09:06:31;;;;;;;32.85;4.72;;;2.90;99.90;;;;;;5079374;28;20048;-68
2022/01/20 09:08:57;;;;;;;33.08;4.13;;;2.80;99.90;;;;;;5080096;28;20036;-69
2022/01/20 09:11:24;;;;;;;27.65;3.67;;;2.90;99.90;;;;;;5088194;28;20127;-69
2022/01/20 09:16:37;;;;;;;23.88;3.33;;;3.00;99.90;;;;;;5082153;28;20127;-69
2022/01/20 09:19:04;;;;;;;29.88;4.07;;;3.10;99.90;;;;;;5077521;28;20477;-69
2022/01/20 09:21:29;;;;;;;28.08;4.00;;;3.30;99.90;;;;;;5071110;28;20294;-71
2022/01/20 09:23:56;;;;;;;30.10;3.35;;;3.30;99.90;;;;;;5081928;28;20111;-70
2022/01/20 09:26:22;;;;;;;22.73;2.53;;;3.40;99.90;;;;;;5071609;28;20037;-68
2022/01/20 09:28:48;;;;;;;23.50;3.90;;;3.50;99.90;;;;;;5075575;28;20403;-67
2022/01/20 09:31:14;;;;;;;28.20;3.90;;;3.60;99.90;;;;;;5074602;28;20032;-66
2022/01/20 09:33:39;;;;;;;31.83;3.53;;;3.70;99.90;;;;;;5092662;28;20380;-67
2022/01/20 09:36:10;;;;;;;41.08;5.78;;;3.80;99.90;;;;;;5092977;28;20050;-68
2022/01/20 09:38:36;;;;;;;27.27;3.58;;;3.90;99.90;;;;;;5091873;28;20052;-69
2022/01/20 09:41:03;;;;;;;32.15;5.20;;;4.00;99.90;;;;;;5092377;28;20048;-71
2022/01/20 09:43:29;;;;;;;23.95;3.75;;;4.10;99.90;;;;;;5091972;28;20081;-69
2022/01/20 09:45:57;;;;;;;30.67;2.78;;;4.10;99.90;;;;;;5088732;28;20036;-69
2022/01/20 09:48:24;;;;;;;25.75;3.13;;;4.20;99.90;;;;;;5090751;28;20406;-73
2022/01/20 09:50:51;;;;;;;30.23;4.03;;;4.20;99.90;;;;;;5075595;28;20036;-70
2022/01/20 09:53:17;;;;;;;20.80;3.40;;;4.10;99.90;;;;;;5108819;28;20410;-70
2022/01/20 09:55:43;;;;;;;20.38;2.08;;;4.10;99.90;;;;;;5090096;28;20056;-71
2022/01/20 09:58:10;;;;;;;20.60;2.65;;;4.00;99.90;;;;;;5097120;28;20040;-68
2022/01/20 10:00:38;;;;;;;23.27;2.92;;;4.00;99.90;;;;;;5081520;28;20047;-69
2022/01/20 10:03:09;;;;;;;12.02;2.33;;;4.00;99.90;;;;;;5092324;28;20032;-69
2022/01/20 10:05:39;;;;;;;13.82;2.50;;;4.00;99.90;;;;;;5091763;28;20059;-70
2022/01/20 10:08:04;;;;;;;21.45;2.55;;;4.00;99.90;;;;;;5091815;28;20039;-71
2022/01/20 10:10:40;;;;;;;20.48;2.42;;;4.00;99.90;;;;;;5089572;28;20453;-69
2022/01/20 10:13:07;;;;;;;22.42;2.17;;;4.00;99.90;;;;;;5088456;28;20494;-72
2022/01/20 10:15:33;;;;;;;22.17;2.92;;;4.10;99.90;;;;;;5091123;28;20731;-70
2022/01/20 10:18:11;;;;;;;20.52;3.42;;;4.10;99.90;;;;;;5080552;28;20048;-70
2022/01/20 10:20:48;;;;;;;18.08;2.75;;;4.20;99.90;;;;;;5085946;28;20036;-67
2022/01/20 10:23:13;;;;;;;27.73;2.40;;;4.20;99.90;;;;;;5088607;28;20494;-71
2022/01/20 10:25:40;;;;;;;36.60;3.03;;;4.30;99.90;;;;;;5089090;28;20091;-69
2022/01/20 10:28:08;;;;;;;19.50;2.70;;;4.40;99.90;;;;;;5078097;28;20032;-71
2022/01/20 10:30:34;;;;;;;24.60;3.00;;;4.40;99.90;;;;;;5085789;28;20458;-71
2022/01/20 10:33:01;;;;;;;29.33;3.88;;;4.40;99.90;;;;;;5086218;28;20040;-70
2022/01/20 10:35:34;;;;;;;17.00;3.17;;;4.60;99.90;;;;;;5093643;28;20036;-68
2022/01/20 10:38:11;;;;;;;28.80;3.15;;;4.60;99.90;;;;;;5085870;28;20114;-68
2022/01/20 10:40:56;;;;;;;24.90;3.05;;;4.60;99.90;;;;;;5086670;28;20040;-72
2022/01/20 10:43:34;;;;;;;24.25;3.15;;;4.60;99.90;;;;;;5090841;28;20068;-69
2022/01/20 10:46:13;;;;;;;27.75;3.78;;;4.70;99.90;;;;;;5090781;28;20032;-68
2022/01/20 10:48:40;;;;;;;29.95;2.78;;;4.80;99.90;;;;;;5075825;28;20040;-71
2022/01/20 10:51:19;;;;;;;13.73;1.85;;;5.00;99.90;;;;;;5083518;28;20061;-67
2022/01/20 10:53:44;;;;;;;24.05;3.05;;;5.10;99.90;;;;;;5084310;28;20040;-69
2022/01/20 10:56:10;;;;;;;18.75;3.33;;;5.30;99.90;;;;;;5084964;28;20040;-67
2022/01/20 10:58:35;;;;;;;31.15;4.30;;;5.40;99.90;;;;;;5084876;28;20044;-71
2022/01/20 11:01:03;;;;;;;25.88;3.80;;;5.20;99.90;;;;;;5084813;28;20100;-69
2022/01/20 11:03:30;;;;;;;25.55;2.55;;;5.10;99.90;;;;;;5076033;28;20036;-70
2022/01/20 11:05:58;;;;;;;19.92;2.17;;;5.00;99.90;;;;;;5088834;28;20483;-67
2022/01/20 11:08:25;;;;;;;24.80;3.35;;;4.80;99.90;;;;;;5089771;28;20063;-68
2022/01/20 11:10:54;;;;;;;17.38;2.35;;;4.70;99.90;;;;;;5100238;28;20043;-69
2022/01/20 11:13:20;;;;;;;20.52;2.25;;;4.70;99.90;;;;;;5088110;28;20044;-68
2022/01/20 11:15:46;;;;;;;24.20;2.88;;;4.60;99.90;;;;;;5083550;28;20037;-68
2022/01/20 11:18:13;;;;;;;28.00;3.38;;;4.60;99.90;;;;;;5089404;28;20372;-67
2022/01/20 11:20:44;;;;;;;24.75;2.47;;;4.50;99.90;;;;;;5087356;28;20047;-69
2022/01/20 11:23:10;;;;;;;23.50;2.15;;;4.50;99.90;;;;;;5094916;28;20037;-69
2022/01/20 11:25:40;;;;;;;21.25;2.55;;;4.50;99.90;;;;;;5083573;28;20047;-70
2022/01/20 11:28:25;;;;;;;22.33;2.85;;;4.50;99.90;;;;;;5056735;28;20462;-69
2022/01/20 11:31:06;;;;;;;29.70;5.13;;;4.40;99.90;;;;;;5070170;28;20036;-72
2022/01/20 11:33:37;;;;;;;44.20;3.95;;;4.30;99.90;;;;;;5083522;28;20473;-67
2022/01/20 11:36:05;;;;;;;37.70;3.30;;;4.30;99.90;;;;;;5090851;28;20035;-73
2022/01/20 11:38:46;;;;;;;18.63;2.63;;;4.20;99.90;;;;;;5091353;28;20386;-68
2022/01/20 11:41:14;;;;;;;22.13;3.25;;;4.20;99.90;;;;;;5089303;28;20093;-69
2022/01/20 11:43:44;;;;;;;25.58;3.10;;;4.20;99.90;;;;;;5089555;28;20028;-70
2022/01/20 11:46:13;;;;;;;22.52;2.58;;;4.20;99.90;;;;;;5089450;28;20048;-70
2022/01/20 11:48:57;;;;;;;11.02;1.92;;;4.30;99.90;;;;;;5088789;28;20040;-67
2022/01/20 11:51:25;;;;;;;18.75;3.28;;;4.40;99.90;;;;;;5102849;28;20083;-67
2022/01/20 11:54:04;;;;;;;18.13;2.63;;;4.50;99.90;;;;;;5089772;28;20083;-69
2022/01/20 11:56:42;;;;;;;20.10;3.22;;;4.60;99.90;;;;;;5097657;28;20036;-68
2022/01/20 11:59:11;;;;;;;25.92;3.08;;;4.70;99.90;;;;;;5097409;28;20145;-69
2022/01/20 12:01:52;;;;;;;39.10;3.70;;;4.90;99.90;;;;;;5091042;28;20379;-69
2022/01/20 12:04:35;;;;;;;34.28;4.30;;;5.00;99.90;;;;;;5087435;28;20032;-70
2022/01/20 12:07:02;;;;;;;36.35;3.58;;;5.30;99.90;;;;;;5087257;28;20051;-69
2022/01/20 12:09:30;;;;;;;23.50;3.38;;;4.80;99.90;;;;;;5084338;28;20471;-70
2022/01/20 12:11:56;;;;;;;28.35;3.67;;;4.20;99.90;;;;;;5083071;28;20291;-69
2022/01/20 12:14:34;;;;;;;19.83;2.78;;;3.80;99.90;;;;;;5083761;28;20123;-69
2022/01/20 12:17:06;;;;;;;12.65;1.70;;;3.50;99.90;;;;;;5081848;28;20445;-71
2022/01/20 12:19:31;;;;;;;18.90;2.63;;;3.40;99.90;;;;;;5088193;28;20048;-69
2022/01/20 12:21:57;;;;;;;17.35;2.85;;;3.40;99.90;;;;;;5084232;28;20109;-70
2022/01/20 12:24:23;;;;;;;7.35;1.70;;;3.40;99.90;;;;;;5080605;28;20051;-71
2022/01/20 12:26:48;;;;;;;24.48;3.17;;;3.50;99.90;;;;;;5078427;28;20039;-70
2022/01/20 12:29:14;;;;;;;28.88;4.30;;;3.60;99.90;;;;;;5081430;28;20123;-68
2022/01/20 12:31:47;;;;;;;17.77;2.13;;;3.70;99.90;;;;;;5088284;28;20364;-70
2022/01/20 12:34:13;;;;;;;30.15;2.83;;;3.80;99.90;;;;;;5087380;28;20036;-69
2022/01/20 12:36:40;;;;;;;31.77;4.38;;;3.90;99.90;;;;;;5085417;28;20430;-70
2022/01/20 12:39:06;;;;;;;41.78;4.05;;;4.00;99.90;;;;;;5088522;28;20044;-66
2022/01/20 12:41:32;;;;;;;36.53;3.70;;;4.10;99.90;;;;;;5088866;28;20510;-71
2022/01/20 12:44:06;;;;;;;17.88;2.10;;;4.20;99.90;;;;;;5089211;28;20451;-69
2022/01/20 12:46:39;;;;;;;21.73;3.13;;;4.20;99.90;;;;;;5087267;28;20043;-70
2022/01/20 12:49:08;;;;;;;21.13;2.50;;;4.30;99.90;;;;;;5087128;28;20181;-70
2022/01/20 12:51:44;;;;;;;19.63;2.17;;;4.30;99.90;;;;;;5088308;28;20085;-70
2022/01/20 12:54:39;;;;;;;17.83;3.63;;;4.40;99.90;;;;;;5088018;28;20059;-70
2022/01/20 12:57:08;;;;;;;18.02;2.45;;;4.50;99.90;;;;;;5084823;28;20048;-70
2022/01/20 12:59:39;;;;;;;28.27;3.75;;;4.50;99.90;;;;;;5091081;28;20447;-70
2022/01/20 13:02:06;;;;;;;22.83;2.70;;;4.50;99.90;;;;;;5086884;28;20048;-68
2022/01/20 13:04:33;;;;;;;25.15;3.05;;;4.50;99.90;;;;;;5099291;28;20044;-70
2022/01/20 13:07:00;;;;;;;27.30;2.63;;;4.60;99.90;;;;;;5091768;28;20407;-67
2022/01/20 13:09:41;;;;;;;33.30;4.75;;;4.70;99.90;;;;;;5086552;28;20077;-69
2022/01/20 13:12:08;;;;;;;32.05;4.15;;;4.60;99.90;;;;;;5100425;28;20044;-67
2022/01/20 13:14:35;;;;;;;29.63;3.88;;;4.50;99.90;;;;;;5091881;28;20059;-70
2022/01/20 13:17:01;;;;;;;22.38;3.47;;;4.40;99.90;;;;;;5091488;28;20067;-69
2022/01/20 13:19:33;;;;;;;21.88;3.38;;;4.20;99.90;;;;;;5089708;28;20457;-69
2022/01/20 13:22:00;;;;;;;20.45;4.43;;;4.00;99.90;;;;;;5091788;28;20056;-70
2022/01/20 13:24:28;;;;;;;23.95;2.22;;;4.00;99.90;;;;;;5091300;28;20154;-68
2022/01/20 13:26:54;;;;;;;18.02;2.67;;;3.90;99.90;;;;;;5091296;28;20079;-70
2022/01/20 13:29:21;;;;;;;31.17;3.53;;;3.90;99.90;;;;;;5073520;28;20411;-69
2022/01/20 13:31:51;;;;;;;32.50;3.45;;;4.00;99.90;;;;;;5084597;28;20564;-69
2022/01/20 13:34:19;;;;;;;17.05;2.72;;;4.10;99.90;;;;;;5081953;28;20040;-69
2022/01/20 13:36:50;;;;;;;36.55;3.72;;;4.20;99.90;;;;;;5078478;28;20072;-69
2022/01/20 13:39:37;;;;;;;21.98;3.45;;;4.20;99.90;;;;;;5083207;28;20040;-70
2022/01/20 13:42:19;;;;;;;21.17;2.97;;;4.30;99.90;;;;;;5081518;28;20047;-71
2022/01/20 13:45:14;;;;;;;33.75;4.60;;;4.30;99.90;;;;;;5085894;28;20428;-69
2022/01/20 13:47:57;;;;;;;29.90;3.97;;;4.30;99.90;;;;;;5083181;28;20040;-69
2022/01/20 13:50:38;;;;;;;28.80;3.30;;;4.40;99.90;;;;;;5084389;28;20054;-70
2022/01/20 13:53:15;;;;;;;24.35;2.58;;;4.40;99.90;;;;;;5098364;28;20036;-70
2022/01/20 13:55:43;;;;;;;16.73;1.60;;;4.50;99.90;;;;;;5079599;28;20458;-69
2022/01/20 13:58:20;;;;;;;18.48;2.40;;;4.50;99.90;;;;;;5086627;28;20490;-69
2022/01/20 14:00:45;;;;;;;19.38;2.13;;;4.50;99.90;;;;;;5085100;28;20115;-70
2022/01/20 14:03:11;;;;;;;28.35;2.72;;;4.50;99.90;;;;;;5085937;28;20114;-70
2022/01/20 14:05:37;;;;;;;14.98;2.15;;;4.60;99.90;;;;;;5086680;28;20505;-68